Saint Petersburg, FL (33704)

4:09 PM EST on February 06, 2016 (GMT -0500)
Euclid Place | | Change Station
CLOSE
Current Station
Personal Weather Station
Location: Saint Petersburg, FL
Elevation: 66 ft
Nearby Weather Stations

Elev 66 ft 27.79 °N, 82.65 °W | Updated 1 second ago

Light Rain
Light Rain
53.9 °F
Feels Like 53.9 °F
N
1.0
Wind Variable Wind from North
Gusts 6.0 mph

Today
High -- | Low -- °F
--% Chance of Precip.
Yesterday
High -- | Low -- °F
Precip. -- in
Pressure 30.09 in
Visibility 7.0 miles
Clouds Mostly Cloudy 700 ft
Overcast 2000 ft
Dew Point 52 °F
Humidity 95%
Rainfall 0.20 in
Snow Depth Not available.
7:14 AM 6:14 PM
Waning Crescent, 4% visible
METAR KSPG 062053Z 34010G14KT 7SM -RA BKN007 OVC020 13/12 A3009 RMK AO2 RAE23B39 SLP189 P0001 60005 T01280117 58015
Pressure 30.09 in
Visibility 7.0 miles
Clouds Mostly Cloudy 700 ft
Overcast 2000 ft
Dew Point 52 °F
Humidity 95%
Rainfall 0.20 in
Snow Depth Not available.
7:14 AM 6:14 PM
Waning Crescent, 4% visible
METAR KSPG 062053Z 34010G14KT 7SM -RA BKN007 OVC020 13/12 A3009 RMK AO2 RAE23B39 SLP189 P0001 60005 T01280117 58015

10-Day Weather Forecast

Almanac

Astronomy

Feb. 06, 2016 Rise Set
Actual Time
Civil Twilight
Nautical Twilight
Astronomical Twilight
Moon
Length of Visible Light
Length of Day
Tomorrow will be .
, % of the Moon is Illuminated

Today's Extremes

State Highs State Lows

Community

WunderPhotos

Upload Photos

1,891,050 photos uploaded!

WunderBlog® & News

Nearby

Air Quality

  Air Quality AQ Index Pollutant
Not available.

Snow Depth

Station Depth Elevation

Earthquake Activity

City Distance Mag. Time & Date
Minimum magnitude displayed is 2.5.

Coastal Water Temperatures

Place Temperature

Stations

Nearby Weather Stations

Station Location Temp. Windchill Dew Point Humidity Wind Precip. Elev Updated Type
                   

Watches & Warnings

There are currently no watches in effect.